sensor_id;sensor_type;location;lat;lon;timestamp;temperature;humidity
78571;SHT31;67861;51.966;5.672;2023-06-22T00:01:03;23.1;56.7
78571;SHT31;67861;51.966;5.672;2023-06-22T00:03:32;23.1;56.9
78571;SHT31;67861;51.966;5.672;2023-06-22T00:06:01;23.1;57.7
78571;SHT31;67861;51.966;5.672;2023-06-22T00:08:29;23.1;57.2
78571;SHT31;67861;51.966;5.672;2023-06-22T00:10:58;23.0;57.8
78571;SHT31;67861;51.966;5.672;2023-06-22T00:13:27;23.0;56.8
78571;SHT31;67861;51.966;5.672;2023-06-22T00:15:56;23.0;57.8
78571;SHT31;67861;51.966;5.672;2023-06-22T00:18:24;22.9;56.8
78571;SHT31;67861;51.966;5.672;2023-06-22T00:20:54;22.9;58.2
78571;SHT31;67861;51.966;5.672;2023-06-22T00:23:26;22.9;58.1
78571;SHT31;67861;51.966;5.672;2023-06-22T00:25:54;22.9;57.9
78571;SHT31;67861;51.966;5.672;2023-06-22T00:28:23;22.9;56.6
78571;SHT31;67861;51.966;5.672;2023-06-22T00:30:51;22.8;56.3
78571;SHT31;67861;51.966;5.672;2023-06-22T00:33:20;22.8;56.8
78571;SHT31;67861;51.966;5.672;2023-06-22T00:35:49;22.8;56.4
78571;SHT31;67861;51.966;5.672;2023-06-22T00:38:21;22.8;56.4
78571;SHT31;67861;51.966;5.672;2023-06-22T00:40:50;22.7;56.0
78571;SHT31;67861;51.966;5.672;2023-06-22T00:43:19;22.7;56.3
78571;SHT31;67861;51.966;5.672;2023-06-22T00:45:48;22.7;56.4
78571;SHT31;67861;51.966;5.672;2023-06-22T00:48:19;22.6;57.0
78571;SHT31;67861;51.966;5.672;2023-06-22T00:50:48;22.6;57.7
78571;SHT31;67861;51.966;5.672;2023-06-22T00:53:20;22.6;57.1
78571;SHT31;67861;51.966;5.672;2023-06-22T00:55:48;22.6;56.8
78571;SHT31;67861;51.966;5.672;2023-06-22T00:58:18;22.6;57.4
78571;SHT31;67861;51.966;5.672;2023-06-22T01:00:48;22.6;58.4
78571;SHT31;67861;51.966;5.672;2023-06-22T01:03:17;22.6;58.5
78571;SHT31;67861;51.966;5.672;2023-06-22T01:05:51;22.6;58.4
78571;SHT31;67861;51.966;5.672;2023-06-22T01:08:31;22.6;57.9
78571;SHT31;67861;51.966;5.672;2023-06-22T01:11:07;22.6;58.3
78571;SHT31;67861;51.966;5.672;2023-06-22T01:13:43;22.6;58.2
78571;SHT31;67861;51.966;5.672;2023-06-22T01:16:18;22.5;57.6
78571;SHT31;67861;51.966;5.672;2023-06-22T01:18:52;22.5;57.9
78571;SHT31;67861;51.966;5.672;2023-06-22T01:21:24;22.5;58.4
78571;SHT31;67861;51.966;5.672;2023-06-22T01:24:06;22.5;57.6
78571;SHT31;67861;51.966;5.672;2023-06-22T01:26:43;22.5;57.5
78571;SHT31;67861;51.966;5.672;2023-06-22T01:29:15;22.4;57.6
78571;SHT31;67861;51.966;5.672;2023-06-22T01:31:45;22.4;58.2
78571;SHT31;67861;51.966;5.672;2023-06-22T01:34:17;22.4;57.0
78571;SHT31;67861;51.966;5.672;2023-06-22T01:36:46;22.4;58.1
78571;SHT31;67861;51.966;5.672;2023-06-22T01:39:17;22.3;59.1
78571;SHT31;67861;51.966;5.672;2023-06-22T01:41:48;22.3;59.0
78571;SHT31;67861;51.966;5.672;2023-06-22T01:44:17;22.3;58.5
78571;SHT31;67861;51.966;5.672;2023-06-22T01:46:48;22.3;58.2
78571;SHT31;67861;51.966;5.672;2023-06-22T01:49:17;22.3;58.8
78571;SHT31;67861;51.966;5.672;2023-06-22T01:51:46;22.2;57.5
78571;SHT31;67861;51.966;5.672;2023-06-22T01:54:17;22.2;57.9
78571;SHT31;67861;51.966;5.672;2023-06-22T01:56:45;22.2;58.0
78571;SHT31;67861;51.966;5.672;2023-06-22T01:59:20;22.1;57.7
78571;SHT31;67861;51.966;5.672;2023-06-22T02:01:59;22.1;57.9
78571;SHT31;67861;51.966;5.672;2023-06-22T02:04:36;22.1;57.9
78571;SHT31;67861;51.966;5.672;2023-06-22T02:07:14;22.0;59.2
78571;SHT31;67861;51.966;5.672;2023-06-22T02:09:45;22.0;58.8
78571;SHT31;67861;51.966;5.672;2023-06-22T02:12:20;22.0;58.9
78571;SHT31;67861;51.966;5.672;2023-06-22T02:14:50;22.0;58.6
78571;SHT31;67861;51.966;5.672;2023-06-22T02:17:20;22.0;58.4
78571;SHT31;67861;51.966;5.672;2023-06-22T02:19:49;21.9;59.0
78571;SHT31;67861;51.966;5.672;2023-06-22T02:22:18;21.9;59.5
78571;SHT31;67861;51.966;5.672;2023-06-22T02:24:46;21.9;59.2
78571;SHT31;67861;51.966;5.672;2023-06-22T02:27:17;21.9;58.9
78571;SHT31;67861;51.966;5.672;2023-06-22T02:29:46;21.9;59.1
78571;SHT31;67861;51.966;5.672;2023-06-22T02:32:15;21.9;58.6
78571;SHT31;67861;51.966;5.672;2023-06-22T02:34:44;21.9;58.6
78571;SHT31;67861;51.966;5.672;2023-06-22T02:37:14;21.8;58.9
78571;SHT31;67861;51.966;5.672;2023-06-22T02:39:43;21.8;59.1
78571;SHT31;67861;51.966;5.672;2023-06-22T02:42:14;21.8;58.9
78571;SHT31;67861;51.966;5.672;2023-06-22T02:44:47;21.7;58.9
78571;SHT31;67861;51.966;5.672;2023-06-22T02:47:15;21.7;59.2
78571;SHT31;67861;51.966;5.672;2023-06-22T02:49:44;21.7;59.0
78571;SHT31;67861;51.966;5.672;2023-06-22T02:52:13;21.7;59.2
78571;SHT31;67861;51.966;5.672;2023-06-22T02:54:41;21.6;59.2
78571;SHT31;67861;51.966;5.672;2023-06-22T02:57:12;21.6;59.3
78571;SHT31;67861;51.966;5.672;2023-06-22T02:59:41;21.6;59.6
78571;SHT31;67861;51.966;5.672;2023-06-22T03:02:10;21.5;59.3
78571;SHT31;67861;51.966;5.672;2023-06-22T03:04:40;21.5;59.6
78571;SHT31;67861;51.966;5.672;2023-06-22T03:07:09;21.5;59.5
78571;SHT31;67861;51.966;5.672;2023-06-22T03:09:38;21.5;59.5
78571;SHT31;67861;51.966;5.672;2023-06-22T03:12:09;21.4;59.6
78571;SHT31;67861;51.966;5.672;2023-06-22T03:14:39;21.4;60.1
78571;SHT31;67861;51.966;5.672;2023-06-22T03:17:09;21.4;59.9
78571;SHT31;67861;51.966;5.672;2023-06-22T03:19:38;21.4;60.1
78571;SHT31;67861;51.966;5.672;2023-06-22T03:22:07;21.3;60.2
78571;SHT31;67861;51.966;5.672;2023-06-22T03:24:36;21.3;60.2
78571;SHT31;67861;51.966;5.672;2023-06-22T03:27:06;21.3;60.4
78571;SHT31;67861;51.966;5.672;2023-06-22T03:29:34;21.3;60.4
78571;SHT31;67861;51.966;5.672;2023-06-22T03:32:03;21.3;60.4
78571;SHT31;67861;51.966;5.672;2023-06-22T03:34:33;21.3;60.4
78571;SHT31;67861;51.966;5.672;2023-06-22T03:37:04;21.3;60.5
78571;SHT31;67861;51.966;5.672;2023-06-22T03:39:33;21.2;60.4
78571;SHT31;67861;51.966;5.672;2023-06-22T03:42:02;21.2;60.9
78571;SHT31;67861;51.966;5.672;2023-06-22T03:44:31;21.3;61.0
78571;SHT31;67861;51.966;5.672;2023-06-22T03:47:02;21.3;60.9
78571;SHT31;67861;51.966;5.672;2023-06-22T03:49:30;21.3;60.9
78571;SHT31;67861;51.966;5.672;2023-06-22T03:52:00;21.3;60.9
78571;SHT31;67861;51.966;5.672;2023-06-22T03:54:30;21.3;61.2
78571;SHT31;67861;51.966;5.672;2023-06-22T03:56:58;21.3;60.9
78571;SHT31;67861;51.966;5.672;2023-06-22T03:59:27;21.3;60.9
78571;SHT31;67861;51.966;5.672;2023-06-22T04:01:56;21.3;61.6
78571;SHT31;67861;51.966;5.672;2023-06-22T04:04:24;21.3;61.1
78571;SHT31;67861;51.966;5.672;2023-06-22T04:06:56;21.3;61.2
78571;SHT31;67861;51.966;5.672;2023-06-22T04:09:24;21.3;61.2
78571;SHT31;67861;51.966;5.672;2023-06-22T04:11:53;21.3;61.8
78571;SHT31;67861;51.966;5.672;2023-06-22T04:14:22;21.3;61.4
78571;SHT31;67861;51.966;5.672;2023-06-22T04:16:51;21.3;61.6
78571;SHT31;67861;51.966;5.672;2023-06-22T04:19:20;21.3;61.7
78571;SHT31;67861;51.966;5.672;2023-06-22T04:21:49;21.3;61.7
78571;SHT31;67861;51.966;5.672;2023-06-22T04:24:18;21.3;62.1
78571;SHT31;67861;51.966;5.672;2023-06-22T04:26:47;21.3;62.2
78571;SHT31;67861;51.966;5.672;2023-06-22T04:29:20;21.3;62.5
78571;SHT31;67861;51.966;5.672;2023-06-22T04:31:54;21.3;62.5
78571;SHT31;67861;51.966;5.672;2023-06-22T04:34:25;21.3;62.4
78571;SHT31;67861;51.966;5.672;2023-06-22T04:36:55;21.3;62.5
78571;SHT31;67861;51.966;5.672;2023-06-22T04:39:24;21.3;62.6
78571;SHT31;67861;51.966;5.672;2023-06-22T04:41:53;21.3;63.0
78571;SHT31;67861;51.966;5.672;2023-06-22T04:44:26;21.3;63.0
78571;SHT31;67861;51.966;5.672;2023-06-22T04:46:57;21.4;63.3
78571;SHT31;67861;51.966;5.672;2023-06-22T04:49:30;21.4;63.7
78571;SHT31;67861;51.966;5.672;2023-06-22T04:52:05;21.4;64.0
78571;SHT31;67861;51.966;5.672;2023-06-22T04:54:35;21.4;64.1
78571;SHT31;67861;51.966;5.672;2023-06-22T04:57:07;21.4;64.1
78571;SHT31;67861;51.966;5.672;2023-06-22T04:59:37;21.4;64.1
78571;SHT31;67861;51.966;5.672;2023-06-22T05:02:08;21.4;64.4
78571;SHT31;67861;51.966;5.672;2023-06-22T05:04:37;21.4;64.3
78571;SHT31;67861;51.966;5.672;2023-06-22T05:07:06;21.4;64.3
78571;SHT31;67861;51.966;5.672;2023-06-22T05:09:38;21.5;64.5
78571;SHT31;67861;51.966;5.672;2023-06-22T05:12:07;21.5;64.8
78571;SHT31;67861;51.966;5.672;2023-06-22T05:14:36;21.5;64.6
78571;SHT31;67861;51.966;5.672;2023-06-22T05:17:05;21.5;64.4
78571;SHT31;67861;51.966;5.672;2023-06-22T05:19:39;21.5;64.5
78571;SHT31;67861;51.966;5.672;2023-06-22T05:22:12;21.5;64.7
78571;SHT31;67861;51.966;5.672;2023-06-22T05:24:41;21.6;64.2
78571;SHT31;67861;51.966;5.672;2023-06-22T05:27:10;21.6;64.2
78571;SHT31;67861;51.966;5.672;2023-06-22T05:29:39;21.6;64.1
78571;SHT31;67861;51.966;5.672;2023-06-22T05:32:09;21.6;64.2
78571;SHT31;67861;51.966;5.672;2023-06-22T05:34:38;21.6;64.1
78571;SHT31;67861;51.966;5.672;2023-06-22T05:37:09;21.7;63.9
78571;SHT31;67861;51.966;5.672;2023-06-22T05:39:39;21.7;63.9
78571;SHT31;67861;51.966;5.672;2023-06-22T05:42:08;21.7;63.9
78571;SHT31;67861;51.966;5.672;2023-06-22T05:44:38;21.7;64.3
78571;SHT31;67861;51.966;5.672;2023-06-22T05:47:07;21.7;63.7
78571;SHT31;67861;51.966;5.672;2023-06-22T05:49:36;21.7;64.0
78571;SHT31;67861;51.966;5.672;2023-06-22T05:52:05;21.7;64.2
78571;SHT31;67861;51.966;5.672;2023-06-22T05:54:34;21.7;64.4
78571;SHT31;67861;51.966;5.672;2023-06-22T05:57:03;21.8;63.9
78571;SHT31;67861;51.966;5.672;2023-06-22T05:59:32;21.8;63.5
78571;SHT31;67861;51.966;5.672;2023-06-22T06:02:01;21.8;63.6
78571;SHT31;67861;51.966;5.672;2023-06-22T06:04:29;21.8;63.8
78571;SHT31;67861;51.966;5.672;2023-06-22T06:06:58;21.9;63.7
78571;SHT31;67861;51.966;5.672;2023-06-22T06:09:27;21.9;63.7
78571;SHT31;67861;51.966;5.672;2023-06-22T06:11:56;21.9;63.8
78571;SHT31;67861;51.966;5.672;2023-06-22T06:14:25;21.9;64.2
78571;SHT31;67861;51.966;5.672;2023-06-22T06:16:55;22.0;64.3
78571;SHT31;67861;51.966;5.672;2023-06-22T06:19:24;22.1;63.6
78571;SHT31;67861;51.966;5.672;2023-06-22T06:21:53;22.1;63.5
78571;SHT31;67861;51.966;5.672;2023-06-22T06:24:21;22.2;63.8
78571;SHT31;67861;51.966;5.672;2023-06-22T06:26:50;22.2;63.6
78571;SHT31;67861;51.966;5.672;2023-06-22T06:29:19;22.3;63.6
78571;SHT31;67861;51.966;5.672;2023-06-22T06:31:50;22.3;63.6
78571;SHT31;67861;51.966;5.672;2023-06-22T06:34:18;22.4;63.4
78571;SHT31;67861;51.966;5.672;2023-06-22T06:36:47;22.4;63.6
78571;SHT31;67861;51.966;5.672;2023-06-22T06:39:16;22.5;64.3
78571;SHT31;67861;51.966;5.672;2023-06-22T06:41:44;22.5;64.2
78571;SHT31;67861;51.966;5.672;2023-06-22T06:44:13;22.6;63.6
78571;SHT31;67861;51.966;5.672;2023-06-22T06:46:42;22.7;63.7
78571;SHT31;67861;51.966;5.672;2023-06-22T06:49:10;22.8;64.1
78571;SHT31;67861;51.966;5.672;2023-06-22T06:51:39;22.9;63.7
78571;SHT31;67861;51.966;5.672;2023-06-22T06:54:08;23.0;63.2
78571;SHT31;67861;51.966;5.672;2023-06-22T06:56:37;23.1;63.6
78571;SHT31;67861;51.966;5.672;2023-06-22T06:59:05;23.2;63.8
78571;SHT31;67861;51.966;5.672;2023-06-22T07:01:35;23.3;63.0
78571;SHT31;67861;51.966;5.672;2023-06-22T07:04:03;23.4;61.3
78571;SHT31;67861;51.966;5.672;2023-06-22T07:06:32;23.5;60.8
78571;SHT31;67861;51.966;5.672;2023-06-22T07:09:01;23.6;60.0
78571;SHT31;67861;51.966;5.672;2023-06-22T07:11:30;23.6;59.9
78571;SHT31;67861;51.966;5.672;2023-06-22T07:13:58;23.7;58.9
78571;SHT31;67861;51.966;5.672;2023-06-22T07:16:27;23.8;59.4
78571;SHT31;67861;51.966;5.672;2023-06-22T07:18:57;23.8;59.0
78571;SHT31;67861;51.966;5.672;2023-06-22T07:21:26;23.9;59.7
78571;SHT31;67861;51.966;5.672;2023-06-22T07:23:55;24.0;59.6
78571;SHT31;67861;51.966;5.672;2023-06-22T07:26:24;24.1;58.9
78571;SHT31;67861;51.966;5.672;2023-06-22T07:28:52;24.2;58.0
78571;SHT31;67861;51.966;5.672;2023-06-22T07:31:23;24.3;57.3
78571;SHT31;67861;51.966;5.672;2023-06-22T07:33:52;24.3;57.4
78571;SHT31;67861;51.966;5.672;2023-06-22T07:36:23;24.4;57.2
78571;SHT31;67861;51.966;5.672;2023-06-22T07:38:51;24.5;57.1
78571;SHT31;67861;51.966;5.672;2023-06-22T07:41:20;24.6;56.9
78571;SHT31;67861;51.966;5.672;2023-06-22T07:43:49;24.7;55.6
78571;SHT31;67861;51.966;5.672;2023-06-22T07:46:17;24.7;56.2
78571;SHT31;67861;51.966;5.672;2023-06-22T07:48:46;24.8;55.8
78571;SHT31;67861;51.966;5.672;2023-06-22T07:51:15;24.9;55.6
78571;SHT31;67861;51.966;5.672;2023-06-22T07:53:44;25.0;54.5
78571;SHT31;67861;51.966;5.672;2023-06-22T07:56:15;25.0;54.6
78571;SHT31;67861;51.966;5.672;2023-06-22T07:58:45;25.1;54.3
78571;SHT31;67861;51.966;5.672;2023-06-22T08:01:15;25.1;51.6
78571;SHT31;67861;51.966;5.672;2023-06-22T08:03:48;25.2;53.1
78571;SHT31;67861;51.966;5.672;2023-06-22T08:06:18;25.2;52.5
78571;SHT31;67861;51.966;5.672;2023-06-22T08:08:47;25.2;53.5
78571;SHT31;67861;51.966;5.672;2023-06-22T08:11:21;25.3;53.7
78571;SHT31;67861;51.966;5.672;2023-06-22T08:13:51;25.4;53.3
78571;SHT31;67861;51.966;5.672;2023-06-22T08:16:22;25.4;52.8
78571;SHT31;67861;51.966;5.672;2023-06-22T08:18:50;25.5;52.5
78571;SHT31;67861;51.966;5.672;2023-06-22T08:21:19;25.6;52.5
78571;SHT31;67861;51.966;5.672;2023-06-22T08:23:48;25.6;53.0
78571;SHT31;67861;51.966;5.672;2023-06-22T08:26:17;25.7;53.1
78571;SHT31;67861;51.966;5.672;2023-06-22T08:28:46;25.7;51.9
78571;SHT31;67861;51.966;5.672;2023-06-22T08:31:14;25.8;51.2
78571;SHT31;67861;51.966;5.672;2023-06-22T08:33:43;25.8;52.0
78571;SHT31;67861;51.966;5.672;2023-06-22T08:36:12;25.8;52.2
78571;SHT31;67861;51.966;5.672;2023-06-22T08:38:42;25.9;50.6
78571;SHT31;67861;51.966;5.672;2023-06-22T08:41:11;25.9;51.4
78571;SHT31;67861;51.966;5.672;2023-06-22T08:43:42;25.9;50.8
78571;SHT31;67861;51.966;5.672;2023-06-22T08:46:10;26.0;50.1
78571;SHT31;67861;51.966;5.672;2023-06-22T08:48:39;26.0;50.9
78571;SHT31;67861;51.966;5.672;2023-06-22T08:51:08;26.0;50.8
78571;SHT31;67861;51.966;5.672;2023-06-22T08:53:37;26.0;50.7
78571;SHT31;67861;51.966;5.672;2023-06-22T08:56:06;26.1;51.1
78571;SHT31;67861;51.966;5.672;2023-06-22T08:58:34;26.1;50.7
78571;SHT31;67861;51.966;5.672;2023-06-22T09:01:03;26.2;49.9
78571;SHT31;67861;51.966;5.672;2023-06-22T09:03:32;26.2;50.7
78571;SHT31;67861;51.966;5.672;2023-06-22T09:06:03;26.3;49.8
78571;SHT31;67861;51.966;5.672;2023-06-22T09:08:31;26.3;48.3
78571;SHT31;67861;51.966;5.672;2023-06-22T09:11:00;26.4;47.8
78571;SHT31;67861;51.966;5.672;2023-06-22T09:13:31;26.4;47.8
78571;SHT31;67861;51.966;5.672;2023-06-22T09:16:00;26.5;47.0
78571;SHT31;67861;51.966;5.672;2023-06-22T09:18:28;26.5;47.6
78571;SHT31;67861;51.966;5.672;2023-06-22T09:20:57;26.5;46.9
78571;SHT31;67861;51.966;5.672;2023-06-22T09:23:26;26.6;47.4
78571;SHT31;67861;51.966;5.672;2023-06-22T09:25:55;26.6;48.3
78571;SHT31;67861;51.966;5.672;2023-06-22T09:28:24;26.7;46.8
78571;SHT31;67861;51.966;5.672;2023-06-22T09:30:52;26.7;47.3
78571;SHT31;67861;51.966;5.672;2023-06-22T09:33:24;26.8;47.1
78571;SHT31;67861;51.966;5.672;2023-06-22T09:35:53;26.8;46.1
78571;SHT31;67861;51.966;5.672;2023-06-22T09:38:22;26.8;45.3
78571;SHT31;67861;51.966;5.672;2023-06-22T09:40:51;26.9;44.4
78571;SHT31;67861;51.966;5.672;2023-06-22T09:43:20;26.9;44.3
78571;SHT31;67861;51.966;5.672;2023-06-22T09:45:48;26.9;44.8
78571;SHT31;67861;51.966;5.672;2023-06-22T09:48:17;26.9;44.5
78571;SHT31;67861;51.966;5.672;2023-06-22T09:50:48;26.9;44.1
78571;SHT31;67861;51.966;5.672;2023-06-22T09:53:17;26.9;44.0
78571;SHT31;67861;51.966;5.672;2023-06-22T09:55:46;26.9;45.0
78571;SHT31;67861;51.966;5.672;2023-06-22T09:58:16;27.0;45.4
78571;SHT31;67861;51.966;5.672;2023-06-22T10:00:45;27.0;45.7
78571;SHT31;67861;51.966;5.672;2023-06-22T10:03:14;27.0;45.3
78571;SHT31;67861;51.966;5.672;2023-06-22T10:05:42;27.0;44.3
78571;SHT31;67861;51.966;5.672;2023-06-22T10:08:11;27.0;44.6
78571;SHT31;67861;51.966;5.672;2023-06-22T10:10:40;27.0;45.8
78571;SHT31;67861;51.966;5.672;2023-06-22T10:13:10;27.0;46.1
78571;SHT31;67861;51.966;5.672;2023-06-22T10:15:39;27.0;46.4
78571;SHT31;67861;51.966;5.672;2023-06-22T10:18:08;27.0;47.3
78571;SHT31;67861;51.966;5.672;2023-06-22T10:20:37;27.0;47.3
78571;SHT31;67861;51.966;5.672;2023-06-22T10:23:06;27.0;47.1
78571;SHT31;67861;51.966;5.672;2023-06-22T10:25:34;27.0;47.7
78571;SHT31;67861;51.966;5.672;2023-06-22T10:28:03;27.0;48.0
78571;SHT31;67861;51.966;5.672;2023-06-22T10:30:32;27.1;47.1
78571;SHT31;67861;51.966;5.672;2023-06-22T10:33:01;27.1;47.3
78571;SHT31;67861;51.966;5.672;2023-06-22T10:35:29;27.1;46.5
78571;SHT31;67861;51.966;5.672;2023-06-22T10:37:58;27.1;46.3
78571;SHT31;67861;51.966;5.672;2023-06-22T10:40:27;27.1;46.9
78571;SHT31;67861;51.966;5.672;2023-06-22T10:42:56;27.1;46.2
78571;SHT31;67861;51.966;5.672;2023-06-22T10:45:25;27.1;47.7
78571;SHT31;67861;51.966;5.672;2023-06-22T10:47:55;27.0;47.7
78571;SHT31;67861;51.966;5.672;2023-06-22T10:50:25;27.0;47.3
78571;SHT31;67861;51.966;5.672;2023-06-22T10:52:54;27.0;48.4
78571;SHT31;67861;51.966;5.672;2023-06-22T10:55:23;27.0;48.1
78571;SHT31;67861;51.966;5.672;2023-06-22T10:57:51;27.0;47.5
78571;SHT31;67861;51.966;5.672;2023-06-22T11:00:20;27.0;47.5
78571;SHT31;67861;51.966;5.672;2023-06-22T11:02:49;27.0;48.6
78571;SHT31;67861;51.966;5.672;2023-06-22T11:05:18;27.0;48.7
78571;SHT31;67861;51.966;5.672;2023-06-22T11:07:46;27.0;48.2
78571;SHT31;67861;51.966;5.672;2023-06-22T11:10:16;27.0;48.8
78571;SHT31;67861;51.966;5.672;2023-06-22T11:12:45;27.0;48.0
78571;SHT31;67861;51.966;5.672;2023-06-22T11:15:13;27.0;48.7
78571;SHT31;67861;51.966;5.672;2023-06-22T11:17:42;27.0;48.5
78571;SHT31;67861;51.966;5.672;2023-06-22T11:20:13;27.0;48.6
78571;SHT31;67861;51.966;5.672;2023-06-22T11:22:42;27.0;48.4
78571;SHT31;67861;51.966;5.672;2023-06-22T11:25:11;27.0;48.1
78571;SHT31;67861;51.966;5.672;2023-06-22T11:27:40;27.0;48.1
78571;SHT31;67861;51.966;5.672;2023-06-22T11:30:10;27.0;47.5
78571;SHT31;67861;51.966;5.672;2023-06-22T11:32:38;27.0;49.0
78571;SHT31;67861;51.966;5.672;2023-06-22T11:35:07;27.0;49.5
78571;SHT31;67861;51.966;5.672;2023-06-22T11:37:36;27.0;49.5
78571;SHT31;67861;51.966;5.672;2023-06-22T11:40:05;27.0;49.5
78571;SHT31;67861;51.966;5.672;2023-06-22T11:42:35;27.0;48.7
78571;SHT31;67861;51.966;5.672;2023-06-22T11:45:05;27.0;49.1
78571;SHT31;67861;51.966;5.672;2023-06-22T11:47:34;27.0;49.3
78571;SHT31;67861;51.966;5.672;2023-06-22T11:50:03;27.0;50.8
78571;SHT31;67861;51.966;5.672;2023-06-22T11:52:33;27.1;49.1
78571;SHT31;67861;51.966;5.672;2023-06-22T11:55:03;27.1;50.3
78571;SHT31;67861;51.966;5.672;2023-06-22T11:57:35;27.0;49.7
78571;SHT31;67861;51.966;5.672;2023-06-22T12:00:05;27.0;51.2
78571;SHT31;67861;51.966;5.672;2023-06-22T12:02:42;27.0;51.2
78571;SHT31;67861;51.966;5.672;2023-06-22T12:05:11;27.0;52.1
78571;SHT31;67861;51.966;5.672;2023-06-22T12:07:40;26.9;54.7
78571;SHT31;67861;51.966;5.672;2023-06-22T12:10:09;26.9;54.7
78571;SHT31;67861;51.966;5.672;2023-06-22T12:12:39;26.8;56.4
78571;SHT31;67861;51.966;5.672;2023-06-22T12:15:09;26.8;56.9
78571;SHT31;67861;51.966;5.672;2023-06-22T12:17:38;26.8;57.6
78571;SHT31;67861;51.966;5.672;2023-06-22T12:20:07;26.8;57.7
78571;SHT31;67861;51.966;5.672;2023-06-22T12:22:36;26.7;57.6
78571;SHT31;67861;51.966;5.672;2023-06-22T12:25:06;26.7;57.2
78571;SHT31;67861;51.966;5.672;2023-06-22T12:27:36;26.7;57.7
78571;SHT31;67861;51.966;5.672;2023-06-22T12:30:05;26.6;57.9
78571;SHT31;67861;51.966;5.672;2023-06-22T12:32:34;26.6;59.4
78571;SHT31;67861;51.966;5.672;2023-06-22T12:35:03;26.5;58.5
78571;SHT31;67861;51.966;5.672;2023-06-22T12:37:34;26.5;59.9
78571;SHT31;67861;51.966;5.672;2023-06-22T12:40:03;26.5;60.7
78571;SHT31;67861;51.966;5.672;2023-06-22T12:42:32;26.5;59.6
78571;SHT31;67861;51.966;5.672;2023-06-22T12:45:01;26.4;59.5
78571;SHT31;67861;51.966;5.672;2023-06-22T12:47:29;26.4;59.2
78571;SHT31;67861;51.966;5.672;2023-06-22T12:50:01;26.4;60.9
78571;SHT31;67861;51.966;5.672;2023-06-22T12:52:30;26.3;60.3
78571;SHT31;67861;51.966;5.672;2023-06-22T12:54:59;26.3;59.0
78571;SHT31;67861;51.966;5.672;2023-06-22T12:57:28;26.2;59.3
78571;SHT31;67861;51.966;5.672;2023-06-22T12:59:56;26.2;59.6
78571;SHT31;67861;51.966;5.672;2023-06-22T13:02:26;26.1;61.1
78571;SHT31;67861;51.966;5.672;2023-06-22T13:04:55;26.0;61.2
78571;SHT31;67861;51.966;5.672;2023-06-22T13:07:24;26.0;61.2
78571;SHT31;67861;51.966;5.672;2023-06-22T13:09:55;26.0;62.0
78571;SHT31;67861;51.966;5.672;2023-06-22T13:12:23;25.9;62.1
78571;SHT31;67861;51.966;5.672;2023-06-22T13:14:52;25.9;62.7
78571;SHT31;67861;51.966;5.672;2023-06-22T13:17:21;25.9;62.7
78571;SHT31;67861;51.966;5.672;2023-06-22T13:19:50;25.8;63.7
78571;SHT31;67861;51.966;5.672;2023-06-22T13:22:29;25.8;63.8
78571;SHT31;67861;51.966;5.672;2023-06-22T13:24:59;25.8;62.7
78571;SHT31;67861;51.966;5.672;2023-06-22T13:27:28;25.8;63.3
78571;SHT31;67861;51.966;5.672;2023-06-22T13:29:57;25.7;63.0
78571;SHT31;67861;51.966;5.672;2023-06-22T13:32:26;25.7;63.6
78571;SHT31;67861;51.966;5.672;2023-06-22T13:34:54;25.7;63.5
78571;SHT31;67861;51.966;5.672;2023-06-22T13:37:23;25.6;64.0
78571;SHT31;67861;51.966;5.672;2023-06-22T13:39:52;25.6;63.9
78571;SHT31;67861;51.966;5.672;2023-06-22T13:42:23;25.5;64.0
78571;SHT31;67861;51.966;5.672;2023-06-22T13:44:52;25.5;64.4
78571;SHT31;67861;51.966;5.672;2023-06-22T13:47:21;25.5;64.4
78571;SHT31;67861;51.966;5.672;2023-06-22T13:49:50;25.5;63.8
78571;SHT31;67861;51.966;5.672;2023-06-22T13:52:18;25.4;63.9
78571;SHT31;67861;51.966;5.672;2023-06-22T13:54:47;25.4;63.7
78571;SHT31;67861;51.966;5.672;2023-06-22T13:57:15;25.3;63.5
78571;SHT31;67861;51.966;5.672;2023-06-22T13:59:44;25.3;63.9
78571;SHT31;67861;51.966;5.672;2023-06-22T14:02:13;25.3;64.3
78571;SHT31;67861;51.966;5.672;2023-06-22T14:04:42;25.2;64.7
78571;SHT31;67861;51.966;5.672;2023-06-22T14:07:11;25.2;64.9
78571;SHT31;67861;51.966;5.672;2023-06-22T14:09:39;25.1;65.7
78571;SHT31;67861;51.966;5.672;2023-06-22T14:12:10;25.1;65.5
78571;SHT31;67861;51.966;5.672;2023-06-22T14:14:39;25.0;65.0
78571;SHT31;67861;51.966;5.672;2023-06-22T14:17:10;25.0;65.0
78571;SHT31;67861;51.966;5.672;2023-06-22T14:19:38;25.0;64.9
78571;SHT31;67861;51.966;5.672;2023-06-22T14:22:07;24.9;65.1
78571;SHT31;67861;51.966;5.672;2023-06-22T14:24:36;24.9;66.0
78571;SHT31;67861;51.966;5.672;2023-06-22T14:27:05;24.8;66.0
78571;SHT31;67861;51.966;5.672;2023-06-22T14:29:35;24.7;65.7
78571;SHT31;67861;51.966;5.672;2023-06-22T14:32:04;24.7;65.3
78571;SHT31;67861;51.966;5.672;2023-06-22T14:34:35;24.6;65.3
78571;SHT31;67861;51.966;5.672;2023-06-22T14:37:06;24.5;64.7
78571;SHT31;67861;51.966;5.672;2023-06-22T14:39:36;24.5;65.1
78571;SHT31;67861;51.966;5.672;2023-06-22T14:42:06;24.4;65.3
78571;SHT31;67861;51.966;5.672;2023-06-22T14:44:37;24.3;66.0
78571;SHT31;67861;51.966;5.672;2023-06-22T14:47:06;24.2;66.1
78571;SHT31;67861;51.966;5.672;2023-06-22T14:49:35;24.2;65.5
78571;SHT31;67861;51.966;5.672;2023-06-22T14:52:04;24.1;66.2
78571;SHT31;67861;51.966;5.672;2023-06-22T14:54:33;24.1;66.5
78571;SHT31;67861;51.966;5.672;2023-06-22T14:57:02;24.0;65.5
78571;SHT31;67861;51.966;5.672;2023-06-22T14:59:31;24.0;65.6
78571;SHT31;67861;51.966;5.672;2023-06-22T15:02:00;23.9;65.8
78571;SHT31;67861;51.966;5.672;2023-06-22T15:04:28;23.9;66.7
78571;SHT31;67861;51.966;5.672;2023-06-22T15:07:01;23.8;66.6
78571;SHT31;67861;51.966;5.672;2023-06-22T15:09:30;23.7;67.7
78571;SHT31;67861;51.966;5.672;2023-06-22T15:11:59;23.7;67.1
78571;SHT31;67861;51.966;5.672;2023-06-22T15:14:34;23.7;67.1
78571;SHT31;67861;51.966;5.672;2023-06-22T15:17:03;23.6;67.2
78571;SHT31;67861;51.966;5.672;2023-06-22T15:19:31;23.6;68.0
78571;SHT31;67861;51.966;5.672;2023-06-22T15:22:00;23.5;68.6
78571;SHT31;67861;51.966;5.672;2023-06-22T15:24:29;23.5;68.2
78571;SHT31;67861;51.966;5.672;2023-06-22T15:26:58;23.5;68.8
78571;SHT31;67861;51.966;5.672;2023-06-22T15:29:27;23.5;68.6
78571;SHT31;67861;51.966;5.672;2023-06-22T15:32:00;23.5;68.5
78571;SHT31;67861;51.966;5.672;2023-06-22T15:34:29;23.5;68.6
78571;SHT31;67861;51.966;5.672;2023-06-22T15:36:59;23.4;69.1
78571;SHT31;67861;51.966;5.672;2023-06-22T15:39:28;23.4;68.4
78571;SHT31;67861;51.966;5.672;2023-06-22T15:41:56;23.4;68.9
78571;SHT31;67861;51.966;5.672;2023-06-22T15:44:25;23.4;69.3
78571;SHT31;67861;51.966;5.672;2023-06-22T15:46:54;23.4;69.0
78571;SHT31;67861;51.966;5.672;2023-06-22T15:49:23;23.4;69.7
78571;SHT31;67861;51.966;5.672;2023-06-22T15:51:54;23.4;69.3
78571;SHT31;67861;51.966;5.672;2023-06-22T15:54:22;23.4;69.3
78571;SHT31;67861;51.966;5.672;2023-06-22T15:56:51;23.4;69.8
78571;SHT31;67861;51.966;5.672;2023-06-22T15:59:19;23.4;69.7
78571;SHT31;67861;51.966;5.672;2023-06-22T16:01:48;23.4;69.8
78571;SHT31;67861;51.966;5.672;2023-06-22T16:04:17;23.4;69.9
78571;SHT31;67861;51.966;5.672;2023-06-22T16:06:46;23.4;70.3
78571;SHT31;67861;51.966;5.672;2023-06-22T16:09:14;23.4;70.6
78571;SHT31;67861;51.966;5.672;2023-06-22T16:11:43;23.4;70.7
78571;SHT31;67861;51.966;5.672;2023-06-22T16:14:12;23.4;71.0
78571;SHT31;67861;51.966;5.672;2023-06-22T16:16:41;23.4;70.7